Time;durP1;ratioP1;P1;durP2;ratioP2;P2;SDS_P1;SDS_P2;PMS_P1;PMS_P2;Temp;Humidity;BMP_temperature;BMP_pressure;BME280_temperature;BME280_humidity;BME280_pressure;Samples;Min_cycle;Max_cycle;Signal;HPM_P1;HPM_P2
2023/07/17 00:00:53;;;;;;;3.03;2.00;;;16.40;99.90;15.80;100429;;;;578559;244;24084;-77
2023/07/17 00:03:21;;;;;;;1.93;1.83;;;16.40;99.90;15.80;100432;;;;579210;244;24130;-76
2023/07/17 00:05:49;;;;;;;2.17;1.60;;;16.40;99.90;15.70;100448;;;;579306;244;24055;-76
2023/07/17 00:08:20;;;;;;;1.93;1.67;;;16.40;99.90;15.70;100432;;;;579230;244;24052;-76
2023/07/17 00:10:45;;;;;;;2.07;1.97;;;16.40;99.90;15.70;100446;;;;579289;244;24049;-76
2023/07/17 00:13:13;;;;;;;4.70;2.40;;;16.30;99.90;15.80;100446;;;;579261;244;24045;-76
2023/07/17 00:15:41;;;;;;;4.27;2.70;;;16.30;99.90;15.80;100453;;;;578896;244;24140;-78
2023/07/17 00:18:10;;;;;;;5.27;2.60;;;16.40;99.90;15.80;100452;;;;578822;244;24053;-77
2023/07/17 00:20:39;;;;;;;3.43;2.67;;;16.40;99.90;15.80;100448;;;;578909;244;24062;-78
2023/07/17 00:23:10;;;;;;;3.40;2.30;;;16.40;99.90;15.80;100454;;;;579289;243;24059;-78
2023/07/17 00:25:35;;;;;;;2.60;2.10;;;16.40;99.90;15.80;100457;;;;580305;243;24067;-77
2023/07/17 00:28:03;;;;;;;2.77;2.20;;;16.30;99.90;15.80;100452;;;;579780;244;24064;-77
2023/07/17 00:30:30;;;;;;;4.03;2.67;;;16.40;99.90;15.80;100446;;;;579832;244;24084;-78
2023/07/17 00:32:58;;;;;;;5.77;2.40;;;16.40;99.90;15.80;100449;;;;579868;244;24101;-77
2023/07/17 00:35:26;;;;;;;2.77;2.57;;;16.40;99.90;15.80;100441;;;;579808;244;24042;-77
2023/07/17 00:37:54;;;;;;;2.83;2.63;;;16.40;99.90;15.80;100449;;;;579724;244;24039;-77
2023/07/17 00:40:22;;;;;;;3.93;2.43;;;16.40;99.90;15.80;100445;;;;579793;244;24046;-77
2023/07/17 00:42:50;;;;;;;5.07;2.80;;;16.40;99.90;15.80;100437;;;;579557;244;24086;-77
2023/07/17 00:45:18;;;;;;;2.93;2.50;;;16.40;99.90;15.80;100435;;;;579573;244;24111;-77
2023/07/17 00:47:46;;;;;;;3.80;2.33;;;16.40;99.90;15.70;100439;;;;579286;244;24044;-76
2023/07/17 00:50:17;;;;;;;4.60;2.77;;;16.30;99.90;15.70;100435;;;;579195;244;24059;-77
2023/07/17 00:52:44;;;;;;;2.70;2.50;;;16.30;99.90;15.60;100438;;;;578982;244;24161;-77
2023/07/17 00:55:10;;;;;;;4.70;2.60;;;16.20;99.90;15.60;100434;;;;579025;244;24066;-77
2023/07/17 00:57:41;;;;;;;3.53;3.23;;;16.20;99.90;15.60;100431;;;;578636;244;24062;-76
2023/07/17 01:00:10;;;;;;;5.27;2.80;;;16.20;99.90;15.50;100443;;;;578818;244;24070;-77
2023/07/17 01:02:34;;;;;;;5.77;3.30;;;16.10;99.90;15.50;100435;;;;578887;244;24101;-75
2023/07/17 01:05:07;;;;;;;5.83;2.80;;;16.10;99.90;15.50;100441;;;;579281;244;24152;-77
2023/07/17 01:07:31;;;;;;;4.17;2.90;;;16.10;99.90;15.50;100440;;;;578696;244;24110;-77
2023/07/17 01:09:59;;;;;;;3.93;2.90;;;16.10;99.90;15.50;100436;;;;579287;244;24038;-77
2023/07/17 01:12:27;;;;;;;3.90;2.80;;;16.10;99.90;15.50;100434;;;;579241;244;24037;-78
2023/07/17 01:14:55;;;;;;;3.20;2.87;;;16.10;99.90;15.50;100441;;;;579100;244;24052;-77
2023/07/17 01:17:22;;;;;;;5.37;3.33;;;16.00;99.90;15.40;100435;;;;578776;244;24045;-77
2023/07/17 01:19:51;;;;;;;4.10;2.97;;;16.00;99.90;15.40;100429;;;;578905;244;24057;-77
2023/07/17 01:22:21;;;;;;;3.17;2.60;;;16.00;99.90;15.40;100424;;;;578780;244;24067;-77
2023/07/17 01:24:49;;;;;;;8.00;6.77;;;16.00;99.90;15.40;100431;;;;578730;244;24076;-75
2023/07/17 01:27:20;;;;;;;5.53;3.70;;;16.00;99.90;15.40;100433;;;;578824;244;24079;-77
2023/07/17 01:29:46;;;;;;;3.63;3.30;;;16.00;99.90;15.40;100428;;;;578547;244;24055;-77
2023/07/17 01:32:15;;;;;;;3.40;3.10;;;16.00;99.90;15.40;100435;;;;578886;244;24051;-77
2023/07/17 01:34:42;;;;;;;3.50;3.23;;;15.90;99.90;15.40;100437;;;;579649;243;24059;-77
2023/07/17 01:37:14;;;;;;;6.73;3.20;;;16.00;99.90;15.40;100433;;;;580528;243;24055;-76
2023/07/17 01:39:38;;;;;;;4.10;3.43;;;16.00;99.90;15.50;100436;;;;580185;244;24107;-78
2023/07/17 01:42:06;;;;;;;4.23;3.53;;;16.10;99.90;15.50;100430;;;;580107;244;24057;-77
2023/07/17 01:44:34;;;;;;;3.47;3.17;;;16.10;99.90;15.60;100447;;;;579882;244;24063;-76
2023/07/17 01:47:02;;;;;;;4.20;3.80;;;16.20;99.90;15.70;100448;;;;579848;244;24057;-76
2023/07/17 01:49:30;;;;;;;3.63;3.30;;;16.30;99.90;15.80;100435;;;;579552;244;24092;-79
2023/07/17 01:51:59;;;;;;;4.13;3.50;;;16.40;99.90;15.90;100431;;;;579508;241;24048;-76
2023/07/17 01:54:27;;;;;;;3.77;3.47;;;16.50;99.90;15.90;100433;;;;579382;244;24057;-77
2023/07/17 01:56:55;;;;;;;4.47;3.40;;;16.50;99.90;16.00;100430;;;;579216;244;25135;-76
2023/07/17 01:59:23;;;;;;;3.47;3.20;;;16.60;99.90;16.00;100418;;;;579294;244;24088;-78
2023/07/17 02:01:51;;;;;;;8.67;3.83;;;16.60;99.90;16.10;100422;;;;579270;244;24074;-77
2023/07/17 02:04:19;;;;;;;3.97;3.57;;;16.60;99.90;16.10;100425;;;;579179;244;24133;-77
2023/07/17 02:06:47;;;;;;;4.23;3.67;;;16.70;99.90;16.10;100422;;;;579561;244;24053;-77
2023/07/17 02:09:15;;;;;;;5.50;4.17;;;16.70;99.90;16.20;100425;;;;579551;244;24062;-77
2023/07/17 02:11:43;;;;;;;6.20;3.17;;;16.70;99.90;16.20;100419;;;;579337;244;24094;-76
2023/07/17 02:14:11;;;;;;;4.20;3.83;;;16.80;99.90;16.20;100417;;;;579222;244;24065;-78
2023/07/17 02:16:40;;;;;;;3.70;3.40;;;16.70;99.90;16.10;100416;;;;579299;244;24201;-78
2023/07/17 02:19:09;;;;;;;3.47;3.27;;;16.70;99.90;16.10;100406;;;;578890;244;24058;-76
2023/07/17 02:21:37;;;;;;;7.47;3.10;;;16.70;99.90;16.10;100411;;;;578749;244;24087;-77
2023/07/17 02:24:08;;;;;;;3.63;3.33;;;16.70;99.90;16.00;100411;;;;578937;244;24077;-77
2023/07/17 02:26:32;;;;;;;6.33;3.63;;;16.60;99.90;16.00;100403;;;;578614;244;24109;-77
2023/07/17 02:29:00;;;;;;;4.10;3.77;;;16.60;99.90;16.00;100405;;;;579000;244;24060;-77
2023/07/17 02:31:28;;;;;;;4.43;3.43;;;16.60;99.90;16.00;100401;;;;578869;244;24116;-78
2023/07/17 02:33:56;;;;;;;4.63;4.00;;;16.60;99.90;16.10;100397;;;;578793;244;24073;-77
2023/07/17 02:36:24;;;;;;;6.77;4.20;;;16.60;99.90;16.10;100406;;;;579257;244;24063;-76
2023/07/17 02:38:53;;;;;;;4.03;3.67;;;16.70;99.90;16.20;100406;;;;579272;244;24072;-77
2023/07/17 02:41:21;;;;;;;5.17;3.50;;;16.70;99.90;16.30;100406;;;;579303;244;24051;-78
2023/07/17 02:43:49;;;;;;;5.03;3.77;;;16.80;99.90;16.30;100397;;;;579306;244;24080;-77
2023/07/17 02:46:17;;;;;;;5.03;4.07;;;16.90;99.90;16.40;100390;;;;579808;243;24058;-78
2023/07/17 02:48:44;;;;;;;4.10;3.70;;;17.00;99.90;16.50;100396;;;;580624;243;24075;-77
2023/07/17 02:51:15;;;;;;;4.47;3.33;;;17.10;99.90;16.60;100402;;;;579772;244;24045;-77
2023/07/17 02:53:40;;;;;;;5.30;4.07;;;17.20;99.90;16.80;100407;;;;574413;244;35107;-76
2023/07/17 02:56:08;;;;;;;7.60;4.23;;;17.30;99.90;16.80;100410;;;;579438;244;24050;-77
2023/07/17 02:58:43;;;;;;;4.87;3.40;;;17.50;99.90;16.90;100405;;;;579557;244;24079;-77
2023/07/17 03:01:14;;;;;;;5.40;3.50;;;17.50;99.90;17.00;100415;;;;579480;244;24056;-77
2023/07/17 03:03:38;;;;;;;8.30;3.57;;;17.50;99.90;17.10;100415;;;;579602;244;24106;-76
2023/07/17 03:06:06;;;;;;;3.70;3.03;;;17.60;99.90;17.10;100403;;;;579134;241;24090;-79
2023/07/17 03:08:34;;;;;;;4.50;3.37;;;17.70;99.90;17.10;100410;;;;579579;244;24073;-77
2023/07/17 03:11:03;;;;;;;5.13;3.60;;;17.70;99.90;17.20;100422;;;;579520;244;24094;-77
2023/07/17 03:13:34;;;;;;;7.27;3.43;;;17.80;99.90;17.30;100415;;;;579491;244;24077;-78
2023/07/17 03:16:01;;;;;;;2.97;2.70;;;17.80;99.90;17.40;100411;;;;579368;244;24110;-77
2023/07/17 03:18:29;;;;;;;3.17;2.93;;;17.90;99.90;17.40;100414;;;;579515;244;24034;-78
2023/07/17 03:20:57;;;;;;;3.30;3.10;;;18.00;99.90;17.50;100415;;;;579206;244;24075;-77
2023/07/17 03:23:26;;;;;;;4.37;3.07;;;18.10;99.90;17.50;100418;;;;578904;244;23097;-78
2023/07/17 03:25:54;;;;;;;3.33;2.63;;;18.10;99.90;17.50;100420;;;;579225;244;24061;-76
2023/07/17 03:28:22;;;;;;;2.77;2.53;;;18.10;99.90;17.60;100416;;;;579171;244;24086;-77
2023/07/17 03:30:51;;;;;;;3.37;2.70;;;18.10;99.90;17.60;100421;;;;579231;244;24045;-76
2023/07/17 03:33:18;;;;;;;2.80;2.37;;;18.20;99.90;17.80;100423;;;;579256;244;24041;-77
2023/07/17 03:35:46;;;;;;;3.00;2.80;;;18.30;99.90;18.00;100423;;;;579295;244;24039;-77
2023/07/17 03:38:14;;;;;;;3.30;3.00;;;18.50;99.90;18.20;100413;;;;578788;244;24057;-77
2023/07/17 03:40:42;;;;;;;5.70;3.00;;;18.70;99.90;18.40;100418;;;;578922;244;24096;-79
2023/07/17 03:43:09;;;;;;;3.83;3.00;;;18.80;99.90;18.70;100421;;;;573814;244;35078;-78
2023/07/17 03:45:38;;;;;;;2.73;2.57;;;19.60;99.90;19.30;100415;;;;578957;244;23089;-78
2023/07/17 03:48:07;;;;;;;3.77;2.70;;;20.10;99.90;19.70;100413;;;;578885;244;24057;-78
2023/07/17 03:50:35;;;;;;;2.50;2.30;;;20.10;99.90;19.80;100414;;;;578999;244;23171;-79
2023/07/17 03:53:03;;;;;;;4.07;2.60;;;20.30;99.90;20.00;100414;;;;578731;244;23081;-76
2023/07/17 03:55:31;;;;;;;3.33;2.53;;;20.50;99.90;20.30;100419;;;;578751;244;24081;-77
2023/07/17 03:57:59;;;;;;;3.07;2.57;;;20.80;99.90;20.90;100415;;;;579535;243;24074;-77
2023/07/17 04:00:26;;;;;;;4.17;3.77;;;21.30;99.90;21.10;100422;;;;580087;243;24045;-78
2023/07/17 04:02:54;;;;;;;4.00;3.57;;;21.60;99.90;21.00;100419;;;;579913;244;24041;-77
2023/07/17 04:05:22;;;;;;;3.20;3.00;;;21.60;99.90;20.80;100422;;;;579636;244;24090;-77
2023/07/17 04:07:50;;;;;;;4.37;3.20;;;21.50;99.90;20.60;100416;;;;574828;244;35082;-77
2023/07/17 04:10:18;;;;;;;3.07;2.67;;;21.30;99.90;20.40;100410;;;;579781;244;24038;-77
2023/07/17 04:12:47;;;;;;;3.07;2.80;;;20.90;99.90;20.20;100407;;;;579765;244;24070;-77
2023/07/17 04:15:15;;;;;;;5.93;2.80;;;20.90;99.90;20.10;100420;;;;579784;244;24051;-77
2023/07/17 04:17:43;;;;;;;4.63;2.87;;;20.70;99.90;20.00;100418;;;;579609;244;23067;-76
2023/07/17 04:20:11;;;;;;;4.28;3.22;;;20.60;99.90;20.00;100420;;;;574563;244;35071;-76
2023/07/17 04:22:41;;;;;;;3.03;2.87;;;20.50;99.90;19.90;100423;;;;579292;244;24080;-76
2023/07/17 04:25:07;;;;;;;7.60;3.07;;;20.40;99.90;19.90;100414;;;;579113;244;23102;-76
2023/07/17 04:27:35;;;;;;;3.43;2.53;;;20.40;99.90;19.80;100419;;;;579590;244;23098;-76
2023/07/17 04:30:03;;;;;;;4.23;3.83;;;20.30;99.90;19.80;100422;;;;579399;244;24052;-78
2023/07/17 04:32:31;;;;;;;8.53;4.33;;;20.30;99.90;19.90;100419;;;;579710;244;23140;-76
2023/07/17 04:34:59;;;;;;;5.57;3.27;;;20.30;99.90;19.90;100415;;;;579136;244;24104;-76
2023/07/17 04:37:27;;;;;;;5.93;4.17;;;20.40;99.90;20.80;100414;;;;579281;244;24091;-77
2023/07/17 04:39:54;;;;;;;3.90;3.60;;;21.10;99.90;22.40;100422;;;;579238;244;24038;-77
2023/07/17 04:42:22;;;;;;;3.90;3.37;;;22.70;99.90;24.10;100424;;;;579201;244;24072;-75
2023/07/17 04:44:50;;;;;;;3.77;2.80;;;24.50;99.90;25.60;100420;;;;579175;244;24050;-76
2023/07/17 04:47:18;;;;;;;7.23;2.97;;;26.30;99.90;27.10;100417;;;;579271;244;23059;-77
2023/07/17 04:49:46;;;;;;;4.20;2.13;;;27.80;99.90;28.40;100425;;;;579311;244;23094;-78
2023/07/17 04:52:14;;;;;;;2.75;2.50;;;29.20;99.90;29.60;100418;;;;579266;244;24065;-77
2023/07/17 04:54:42;;;;;;;3.47;2.28;;;30.50;99.90;30.80;100413;;;;578790;244;23090;-78
2023/07/17 04:57:10;;;;;;;2.20;2.10;;;31.80;99.90;31.80;100418;;;;578941;244;23063;-77
2023/07/17 04:59:42;;;;;;;2.40;2.20;;;32.80;99.90;32.80;100412;;;;578832;244;24038;-77
2023/07/17 05:02:06;;;;;;;4.80;2.42;;;33.80;96.90;33.50;100406;;;;578803;244;23104;-77
2023/07/17 05:04:34;;;;;;;2.80;2.30;;;35.30;90.30;34.30;100409;;;;578901;244;23082;-77
2023/07/17 05:07:06;;;;;;;4.25;2.45;;;36.00;83.00;35.00;100398;;;;578754;244;23080;-77
2023/07/17 05:09:32;;;;;;;3.00;2.33;;;35.90;82.80;35.30;100401;;;;579602;243;23070;-78
2023/07/17 05:11:59;;;;;;;2.78;2.20;;;36.40;78.00;36.00;100406;;;;580551;243;23078;-77
2023/07/17 05:14:27;;;;;;;7.85;2.10;;;36.90;75.40;36.50;100401;;;;580176;244;24129;-78
2023/07/17 05:16:55;;;;;;;3.62;2.22;;;37.50;72.00;37.00;100401;;;;580020;244;23071;-78
2023/07/17 05:19:26;;;;;;;4.20;3.08;;;38.00;69.30;37.30;100404;;;;579856;244;23074;-78
2023/07/17 05:21:51;;;;;;;6.68;2.37;;;38.40;66.20;37.60;100401;;;;579773;244;23059;-77
2023/07/17 05:24:18;;;;;;;2.70;2.22;;;38.60;64.70;38.00;100395;;;;579351;244;23070;-77
2023/07/17 05:26:46;;;;;;;2.28;2.15;;;38.90;63.90;38.60;100401;;;;579421;244;23061;-79
2023/07/17 05:29:14;;;;;;;3.08;2.35;;;39.50;62.30;39.00;100397;;;;579087;244;25140;-77
2023/07/17 05:31:43;;;;;;;4.32;2.25;;;40.40;60.60;39.40;100396;;;;579205;244;23141;-77
2023/07/17 05:34:12;;;;;;;6.62;3.17;;;40.70;58.20;39.80;100399;;;;579117;244;23089;-77
2023/07/17 05:36:40;;;;;;;3.15;2.37;;;40.60;57.70;39.70;100400;;;;579274;244;23078;-78
2023/07/17 05:39:08;;;;;;;2.40;2.30;;;40.60;57.60;39.80;100397;;;;579547;244;23159;-78
2023/07/17 05:41:36;;;;;;;3.78;2.62;;;40.60;57.10;39.90;100392;;;;574541;244;35079;-77
2023/07/17 05:44:05;;;;;;;2.75;2.45;;;40.70;56.70;40.00;100390;;;;578907;238;23069;-84
2023/07/17 05:46:34;;;;;;;6.72;2.78;;;41.00;56.30;40.40;100391;;;;597043;241;23042;-85
2023/07/17 05:49:03;;;;;;;3.20;2.90;;;41.20;55.70;40.70;100389;;;;587397;241;23059;-81
2023/07/17 05:51:30;;;;;;;2.85;2.72;;;41.20;55.60;40.80;100392;;;;587056;241;24113;-82
2023/07/17 05:53:58;;;;;;;4.00;2.92;;;41.40;55.00;40.40;100383;;;;587284;241;23024;-83
2023/07/17 05:56:27;;;;;;;3.60;2.55;;;41.20;55.40;40.40;100392;;;;587066;241;23042;-83
2023/07/17 05:58:55;;;;;;;3.50;2.90;;;41.40;55.60;40.90;100383;;;;578662;241;24050;-83
2023/07/17 06:01:23;;;;;;;4.12;2.62;;;41.40;55.60;41.50;100380;;;;577756;245;23082;-84
2023/07/17 06:03:53;;;;;;;5.28;2.78;;;42.20;54.10;41.70;100383;;;;566991;249;24132;-83
2023/07/17 06:06:20;;;;;;;3.55;2.70;;;42.20;53.50;41.70;100386;;;;566801;249;23113;-83
2023/07/17 06:08:48;;;;;;;3.12;2.92;;;42.30;53.60;42.00;100390;;;;567358;249;23107;-83
2023/07/17 06:11:28;;;;;;;2.97;2.62;;;42.60;53.00;42.60;100384;;;;567340;249;24216;-82
2023/07/17 06:13:57;;;;;;;7.20;3.05;;;43.60;52.40;43.40;100380;;;;562329;249;35345;-83
2023/07/17 06:16:26;;;;;;;4.95;2.92;;;44.00;51.30;43.50;100373;;;;567251;249;24141;-84
2023/07/17 06:18:54;;;;;;;10.85;2.75;;;44.50;51.20;44.20;100385;;;;567193;249;23121;-83
2023/07/17 06:21:22;;;;;;;4.75;2.75;;;44.50;51.10;45.00;100378;;;;567880;249;23144;-84
2023/07/17 06:23:50;;;;;;;7.60;2.90;;;45.30;49.90;45.60;100384;;;;568399;249;23096;-84
2023/07/17 06:26:18;;;;;;;4.70;2.90;;;46.00;49.30;46.20;100379;;;;567778;249;23098;-84
2023/07/17 06:28:47;;;;;;;2.50;2.33;;;46.60;47.70;46.30;100376;;;;567668;249;23103;-83
2023/07/17 06:31:14;;;;;;;3.35;3.03;;;46.80;47.60;46.80;100395;;;;567292;249;23135;-84
2023/07/17 06:33:42;;;;;;;8.85;3.17;;;47.20;47.40;47.30;100397;;;;567412;249;23162;-84
2023/07/17 06:36:10;;;;;;;5.15;3.00;;;47.70;46.30;47.60;100389;;;;567314;249;23112;-84
2023/07/17 06:38:38;;;;;;;5.15;2.80;;;48.00;46.00;48.30;100396;;;;567731;249;23101;-84
2023/07/17 06:41:06;;;;;;;5.18;2.83;;;49.20;45.10;48.90;100389;;;;567492;249;23088;-83
2023/07/17 06:43:35;;;;;;;3.40;3.00;;;49.80;44.20;49.60;100391;;;;567473;249;23087;-84
2023/07/17 06:46:06;;;;;;;7.75;3.00;;;49.70;44.00;49.80;100383;;;;567433;249;23076;-84
2023/07/17 06:48:31;;;;;;;9.70;3.08;;;50.10;43.60;50.20;100388;;;;565211;249;23094;-83
2023/07/17 06:50:59;;;;;;;8.05;3.00;;;50.40;43.20;50.50;100386;;;;567509;249;23187;-84
2023/07/17 06:53:27;;;;;;;2.53;2.40;;;50.70;42.70;50.80;100388;;;;567529;249;23225;-84
2023/07/17 06:55:57;;;;;;;10.93;3.00;;;51.10;42.30;51.20;100389;;;;567733;249;23115;-85
2023/07/17 06:58:29;;;;;;;3.03;2.80;;;51.30;41.90;51.60;100391;;;;577384;245;23109;-85
2023/07/17 07:00:59;;;;;;;4.53;2.97;;;51.70;41.50;51.80;100387;;;;580539;245;23065;-86
2023/07/17 07:03:27;;;;;;;4.18;2.62;;;51.90;40.80;51.80;100388;;;;580909;245;23080;-86
2023/07/17 07:05:59;;;;;;;7.57;3.00;;;52.00;40.70;52.00;100392;;;;580533;245;23116;-84
2023/07/17 07:08:23;;;;;;;4.80;2.65;;;52.10;40.40;52.40;100386;;;;580463;245;24111;-85
2023/07/17 07:10:53;;;;;;;57.65;9.15;;;52.50;39.90;52.40;100384;;;;580702;245;23072;-84
2023/07/17 07:13:21;;;;;;;10.23;3.28;;;52.60;39.20;52.30;100380;;;;580871;245;23045;-85
2023/07/17 07:15:52;;;;;;;5.30;3.08;;;52.60;39.20;52.60;100387;;;;580977;245;23056;-86
2023/07/17 07:18:17;;;;;;;2.83;2.65;;;52.80;39.80;52.60;100380;;;;566982;249;24147;-84
2023/07/17 07:20:48;;;;;;;4.95;3.00;;;52.70;39.10;52.30;100377;;;;587034;242;23124;-85
2023/07/17 07:23:14;;;;;;;4.00;3.47;;;52.90;39.10;52.70;100381;;;;567552;249;23087;-85
2023/07/17 07:25:47;;;;;;;6.62;2.87;;;53.10;39.40;53.00;100382;;;;589402;243;23090;-84
2023/07/17 07:28:14;;;;;;;5.00;3.65;;;53.20;39.10;53.50;100376;;;;580038;240;23069;-84
2023/07/17 07:30:39;;;;;;;3.40;3.10;;;53.60;38.60;53.70;100377;;;;579630;245;23051;-85
2023/07/17 07:33:07;;;;;;;4.37;2.97;;;53.80;37.30;53.40;100379;;;;580819;244;23106;-84
2023/07/17 07:35:35;;;;;;;3.30;2.72;;;53.60;38.10;53.60;100374;;;;590195;242;23039;-85
2023/07/17 07:38:05;;;;;;;4.62;3.25;;;53.70;37.80;53.90;100372;;;;580961;244;23099;-84
2023/07/17 07:40:33;;;;;;;6.12;3.00;;;54.00;37.00;54.20;100373;;;;581622;244;23054;-86
2023/07/17 07:43:01;;;;;;;9.18;3.20;;;54.30;37.10;54.40;100372;;;;581597;244;23036;-85
2023/07/17 07:45:29;;;;;;;5.68;2.90;;;54.50;36.80;54.60;100370;;;;582050;244;23057;-84
2023/07/17 07:47:57;;;;;;;5.03;2.92;;;54.80;36.60;55.00;100367;;;;577470;242;23027;-83
2023/07/17 07:50:27;;;;;;;2.80;2.55;;;55.00;36.20;55.10;100371;;;;581162;245;23097;-85
2023/07/17 07:52:55;;;;;;;6.65;2.92;;;55.10;35.60;53.50;100368;;;;580905;241;23087;-83
2023/07/17 07:55:26;;;;;;;5.15;3.15;;;54.20;35.60;52.60;100371;;;;581362;241;23061;-83
2023/07/17 07:57:54;;;;;;;5.28;2.42;;;53.20;36.00;53.00;100371;;;;581147;240;24097;-83
2023/07/17 08:00:22;;;;;;;6.32;3.30;;;53.10;36.70;53.50;100367;;;;580564;245;23036;-81
2023/07/17 08:02:50;;;;;;;3.20;2.50;;;53.40;36.30;53.80;100365;;;;580441;245;23039;-82
2023/07/17 08:05:18;;;;;;;6.78;2.58;;;53.80;35.50;54.10;100366;;;;589769;243;24059;-83
2023/07/17 08:07:45;;;;;;;4.68;2.92;;;54.00;35.50;52.40;100360;;;;580424;245;23047;-82
2023/07/17 08:10:13;;;;;;;10.00;2.95;;;53.20;35.30;51.20;100363;;;;589651;243;23067;-82
2023/07/17 08:12:42;;;;;;;3.65;2.70;;;50.20;35.30;48.70;100364;;;;580409;245;23067;-83
2023/07/17 08:15:16;;;;;;;4.47;2.47;;;50.10;35.20;47.70;100368;;;;589965;242;23032;-83
2023/07/17 08:17:40;;;;;;;3.25;2.62;;;48.70;36.90;48.40;100359;;;;580413;245;23037;-84
2023/07/17 08:20:12;;;;;;;6.20;2.62;;;48.50;36.20;48.90;100355;;;;580705;245;23038;-83
2023/07/17 08:22:36;;;;;;;11.85;2.90;;;48.80;35.60;49.80;100348;;;;580495;245;23089;-83
2023/07/17 08:25:08;;;;;;;19.85;3.40;;;49.50;34.50;50.90;100348;;;;589713;243;23047;-83
2023/07/17 08:27:32;;;;;;;7.40;2.42;;;50.60;34.00;51.80;100353;;;;580728;245;23051;-82
2023/07/17 08:30:01;;;;;;;12.52;2.83;;;52.40;32.40;52.50;100348;;;;581346;241;23072;-83
2023/07/17 08:32:30;;;;;;;3.33;2.33;;;52.70;31.70;52.60;100347;;;;580658;241;23085;-83
2023/07/17 08:34:58;;;;;;;19.92;4.07;;;52.70;31.70;52.10;100353;;;;580883;245;23071;-84
2023/07/17 08:37:25;;;;;;;80.82;7.57;;;52.60;32.30;49.90;100349;;;;580863;240;23117;-82
2023/07/17 08:39:53;;;;;;;36.25;4.62;;;51.30;32.00;48.00;100355;;;;589277;242;23096;-83
2023/07/17 08:42:21;;;;;;;31.77;3.85;;;49.60;33.10;46.10;100354;;;;580442;245;23043;-84
2023/07/17 08:44:49;;;;;;;16.30;3.80;;;47.60;34.20;46.50;100352;;;;590190;241;23051;-84
2023/07/17 08:47:17;;;;;;;9.00;2.30;;;46.90;35.70;48.00;100352;;;;581442;244;23055;-84
2023/07/17 08:49:45;;;;;;;28.00;4.30;;;47.80;34.80;49.20;100349;;;;581018;244;24094;-83
2023/07/17 08:52:14;;;;;;;20.50;3.15;;;50.10;33.70;50.20;100339;;;;580758;244;23060;-83
2023/07/17 08:54:46;;;;;;;11.75;3.08;;;50.90;32.50;50.90;100335;;;;580651;244;23107;-84
2023/07/17 08:57:16;;;;;;;9.65;2.58;;;50.90;32.50;51.10;100343;;;;580607;240;23086;-84
2023/07/17 08:59:41;;;;;;;11.90;2.70;;;51.40;32.00;51.70;100344;;;;580784;244;23033;-84
2023/07/17 09:02:09;;;;;;;5.32;2.80;;;52.00;31.90;52.50;100334;;;;580811;245;23070;-84
2023/07/17 09:04:37;;;;;;;34.50;4.75;;;52.70;31.20;53.20;100330;;;;580726;241;24074;-85
2023/07/17 09:07:09;;;;;;;8.82;3.37;;;53.50;31.10;53.80;100331;;;;580675;245;23102;-85
2023/07/17 09:09:37;;;;;;;11.45;2.50;;;54.70;30.30;54.20;100342;;;;589368;243;23105;-86
2023/07/17 09:12:15;;;;;;;14.85;3.22;;;55.00;29.40;54.50;100342;;;;580937;245;23044;-84
2023/07/17 09:14:43;;;;;;;11.33;2.73;;;55.00;29.40;54.80;100333;;;;575620;244;35025;-85
2023/07/17 09:17:07;;;;;;;7.28;3.22;;;55.40;29.40;55.00;100336;;;;589458;242;24074;-86
2023/07/17 09:19:35;;;;;;;9.90;3.37;;;55.80;29.30;54.20;100342;;;;580761;241;23057;-85
2023/07/17 09:22:03;;;;;;;15.38;3.28;;;55.30;29.50;52.40;100348;;;;580469;245;23059;-84
2023/07/17 09:24:38;;;;;;;9.13;3.33;;;54.00;29.70;51.00;100354;;;;589411;243;23045;-84
2023/07/17 09:27:06;;;;;;;13.82;3.10;;;52.60;30.00;51.50;100346;;;;579961;245;23076;-83
2023/07/17 09:29:36;;;;;;;4.03;2.58;;;52.30;29.70;52.00;100340;;;;580238;245;23056;-84
2023/07/17 09:32:23;;;;;;;6.87;2.60;;;52.60;29.60;52.90;100341;;;;580517;245;24068;-84
2023/07/17 09:34:50;;;;;;;4.12;2.40;;;53.20;30.30;54.00;100335;;;;588989;243;24094;-85
2023/07/17 09:37:18;;;;;;;10.15;3.10;;;54.30;29.20;52.30;100339;;;;580465;245;23040;-85
2023/07/17 09:39:46;;;;;;;14.75;3.58;;;53.70;28.60;51.10;100340;;;;580507;245;23094;-82
2023/07/17 09:42:26;;;;;;;6.03;2.33;;;52.40;29.10;51.50;100335;;;;579785;245;24095;-83
2023/07/17 09:44:54;;;;;;;7.30;3.10;;;52.40;29.50;50.80;100338;;;;579998;245;23102;-83
2023/07/17 09:47:24;;;;;;;5.22;2.60;;;51.90;29.60;49.60;100335;;;;588751;243;23049;-81
2023/07/17 09:49:50;;;;;;;16.50;4.72;;;50.90;29.80;48.70;100336;;;;588858;243;23096;-83
2023/07/17 09:52:17;;;;;;;7.30;3.00;;;49.90;29.80;48.40;100337;;;;574393;245;23070;-83
2023/07/17 09:54:52;;;;;;;2.92;2.72;;;49.40;30.40;48.60;100330;;;;579834;245;23142;-83
2023/07/17 09:57:16;;;;;;;27.45;4.10;;;49.30;30.50;49.10;100330;;;;577058;239;23054;-83
2023/07/17 09:59:45;;;;;;;6.72;2.75;;;50.60;30.20;50.30;100316;;;;578910;244;23045;-85
2023/07/17 10:02:13;;;;;;;6.30;2.75;;;50.60;30.20;51.30;100320;;;;581173;244;23064;-85
2023/07/17 10:04:41;;;;;;;10.18;2.95;;;51.80;29.50;52.00;100318;;;;580300;244;23041;-83
2023/07/17 10:07:09;;;;;;;6.82;3.50;;;52.70;29.40;52.60;100312;;;;580109;244;23055;-84
2023/07/17 10:09:36;;;;;;;13.93;3.58;;;53.70;29.10;53.70;100318;;;;580250;244;23083;-83
2023/07/17 10:12:05;;;;;;;12.05;3.65;;;54.60;28.90;53.70;100333;;;;580715;244;23037;-84
2023/07/17 10:14:32;;;;;;;7.28;3.05;;;54.90;28.20;51.60;100324;;;;580382;245;23044;-84
2023/07/17 10:17:00;;;;;;;4.62;2.87;;;53.70;27.90;49.00;100332;;;;589535;242;25185;-80
2023/07/17 10:19:44;;;;;;;5.60;3.40;;;51.50;28.50;46.60;100326;;;;580538;245;23041;-81
2023/07/17 10:22:20;;;;;;;8.40;3.58;;;48.90;29.60;44.50;100334;;;;580566;245;23074;-81
2023/07/17 10:24:51;;;;;;;16.23;4.00;;;46.30;31.00;42.80;100325;;;;581587;245;23041;-81
2023/07/17 10:27:19;;;;;;;52.35;5.53;;;44.20;31.60;41.70;100332;;;;582020;245;24048;-81
2023/07/17 10:29:51;;;;;;;20.98;4.60;;;42.70;32.00;40.80;100326;;;;579523;245;23100;-82
2023/07/17 10:32:15;;;;;;;8.73;4.45;;;41.60;33.20;40.10;100323;;;;577120;245;23201;-82
2023/07/17 10:34:52;;;;;;;12.65;3.72;;;40.70;34.40;39.60;100330;;;;580438;241;23037;-82
2023/07/17 10:37:31;;;;;;;11.82;4.15;;;40.10;34.60;39.20;100330;;;;580968;245;23034;-81
2023/07/17 10:40:12;;;;;;;14.10;3.72;;;39.60;35.70;38.50;100335;;;;580291;245;23086;-81
2023/07/17 10:42:36;;;;;;;15.35;4.15;;;38.90;35.90;37.60;100322;;;;574985;245;45942;-80
2023/07/17 10:45:10;;;;;;;17.50;3.85;;;38.20;36.90;36.80;100325;;;;581412;245;24064;-80
2023/07/17 10:47:38;;;;;;;12.50;3.33;;;37.40;37.50;36.10;100317;;;;581156;245;23041;-82
2023/07/17 10:50:10;;;;;;;6.50;3.80;;;36.60;38.60;35.70;100318;;;;589554;243;23035;-82
2023/07/17 10:52:37;;;;;;;7.87;3.12;;;36.00;39.20;35.20;100317;;;;580378;245;23043;-80
2023/07/17 10:55:04;;;;;;;14.38;4.32;;;35.50;40.10;34.90;100317;;;;580295;241;23058;-81
2023/07/17 10:57:35;;;;;;;14.25;4.00;;;35.20;40.90;34.50;100315;;;;589434;240;23118;-80
2023/07/17 11:00:06;;;;;;;20.33;4.00;;;34.70;40.70;34.10;100322;;;;580498;245;23062;-81
2023/07/17 11:02:35;;;;;;;11.90;3.83;;;34.30;41.50;33.90;100318;;;;580577;245;24105;-81
2023/07/17 11:05:01;;;;;;;13.60;3.28;;;34.10;42.30;33.80;100309;;;;580439;245;23063;-82
2023/07/17 11:07:30;;;;;;;7.35;3.20;;;34.00;42.70;33.60;100317;;;;581165;244;23079;-81
2023/07/17 11:09:55;;;;;;;11.88;3.30;;;33.90;42.60;33.20;100306;;;;581941;244;23060;-81
2023/07/17 11:12:23;;;;;;;10.15;3.80;;;33.50;42.90;32.90;100304;;;;591101;242;23124;-80